createdAt,value
2023-04-08T00:00:40.345Z,4.50
2023-04-08T00:03:08.142Z,4.50
2023-04-08T00:05:35.683Z,4.50
2023-04-08T00:08:03.149Z,4.50
2023-04-08T00:10:30.568Z,4.50
2023-04-08T00:12:58.056Z,4.60
2023-04-08T00:15:25.650Z,4.50
2023-04-08T00:17:54.770Z,4.50
2023-04-08T00:20:24.013Z,4.50
2023-04-08T00:22:51.620Z,4.50
2023-04-08T00:25:19.148Z,4.50
2023-04-08T00:27:46.634Z,4.60
2023-04-08T00:30:15.651Z,4.50
2023-04-08T00:32:44.004Z,4.50
2023-04-08T00:35:13.072Z,4.60
2023-04-08T00:37:41.551Z,4.50
2023-04-08T00:40:09.589Z,4.60
2023-04-08T00:42:37.216Z,4.50
2023-04-08T00:45:05.411Z,4.60
2023-04-08T00:47:32.920Z,4.60
2023-04-08T00:50:00.547Z,4.60
2023-04-08T00:52:28.095Z,4.60
2023-04-08T00:54:56.319Z,4.60
2023-04-08T00:57:23.791Z,4.60
2023-04-08T00:59:52.155Z,4.70
2023-04-08T01:02:35.520Z,4.70
2023-04-08T01:05:11.329Z,4.70
2023-04-08T01:07:45.353Z,4.70
2023-04-08T01:10:24.052Z,4.70
2023-04-08T01:13:04.776Z,4.70
2023-04-08T01:15:35.875Z,4.70
2023-04-08T01:18:07.437Z,4.70
2023-04-08T01:20:35.746Z,4.80
2023-04-08T01:23:40.841Z,4.80
2023-04-08T01:26:10.127Z,4.80
2023-04-08T01:28:39.345Z,4.80
2023-04-08T01:31:08.226Z,4.80
2023-04-08T01:33:37.415Z,4.80
2023-04-08T01:36:06.326Z,4.80
2023-04-08T01:38:39.023Z,4.80
2023-04-08T01:41:10.099Z,4.80
2023-04-08T01:43:40.326Z,4.80
2023-04-08T01:46:10.706Z,4.80
2023-04-08T01:48:38.716Z,4.80
2023-04-08T01:51:06.930Z,4.80
2023-04-08T01:53:36.949Z,4.90
2023-04-08T01:56:13.013Z,4.90
2023-04-08T01:58:46.402Z,4.90
2023-04-08T02:01:17.559Z,5.00
2023-04-08T02:03:46.952Z,5.00
2023-04-08T02:06:14.800Z,5.00
2023-04-08T02:08:42.375Z,5.00
2023-04-08T02:11:10.577Z,5.00
2023-04-08T02:13:38.133Z,4.90
2023-04-08T02:16:17.089Z,4.90
2023-04-08T02:18:51.277Z,4.90
2023-04-08T02:21:22.736Z,4.90
2023-04-08T02:23:51.406Z,5.00
2023-04-08T02:26:21.041Z,5.00
2023-04-08T02:28:50.910Z,5.00
2023-04-08T02:31:19.514Z,5.00
2023-04-08T02:33:48.127Z,5.00
2023-04-08T02:36:16.405Z,5.00
2023-04-08T02:38:49.404Z,5.00
2023-04-08T02:41:17.819Z,5.00
2023-04-08T02:43:45.639Z,5.00
2023-04-08T02:46:13.512Z,5.10
2023-04-08T02:48:41.052Z,5.10
2023-04-08T02:51:08.579Z,5.10
2023-04-08T02:53:36.105Z,5.10
2023-04-08T02:56:03.800Z,5.10
2023-04-08T02:58:31.261Z,5.10
2023-04-08T03:00:58.779Z,5.10
2023-04-08T03:03:30.414Z,5.10
2023-04-08T03:05:58.502Z,5.10
2023-04-08T03:08:26.507Z,5.10
2023-04-08T03:10:53.959Z,5.10
2023-04-08T03:13:21.354Z,5.20
2023-04-08T03:15:48.830Z,5.10
2023-04-08T03:18:16.399Z,5.20
2023-04-08T03:20:43.921Z,5.20
2023-04-08T03:23:11.328Z,5.20
2023-04-08T03:25:38.817Z,5.10
2023-04-08T03:28:06.375Z,5.20
2023-04-08T03:30:34.066Z,5.20
2023-04-08T03:33:04.735Z,5.20
2023-04-08T03:35:33.525Z,5.20
2023-04-08T03:38:01.113Z,5.20
2023-04-08T03:40:28.530Z,5.20
2023-04-08T03:42:55.951Z,5.20
2023-04-08T03:45:23.660Z,5.20
2023-04-08T03:47:51.203Z,5.20
2023-04-08T03:50:18.798Z,5.20
2023-04-08T03:52:46.565Z,5.20
2023-04-08T03:55:14.068Z,5.20
2023-04-08T03:57:41.692Z,5.30
2023-04-08T04:00:10.129Z,5.20
2023-04-08T04:02:40.793Z,5.20
2023-04-08T04:05:08.835Z,5.20
2023-04-08T04:07:36.269Z,5.20
2023-04-08T04:10:04.020Z,5.20
2023-04-08T04:12:31.495Z,5.20
2023-04-08T04:14:59.091Z,5.20
2023-04-08T04:17:27.196Z,5.20
2023-04-08T04:19:54.590Z,5.20
2023-04-08T04:22:22.083Z,5.20
2023-04-08T04:24:50.076Z,5.20
2023-04-08T04:27:18.439Z,5.20
2023-04-08T04:29:45.960Z,5.20
2023-04-08T04:32:13.501Z,5.10
2023-04-08T04:34:41.093Z,5.10
2023-04-08T04:37:08.538Z,5.10
2023-04-08T04:39:36.414Z,5.10
2023-04-08T04:42:04.714Z,5.10
2023-04-08T04:44:32.179Z,5.10
2023-04-08T04:46:59.652Z,5.10
2023-04-08T04:49:27.158Z,5.10
2023-04-08T04:51:54.747Z,5.10
2023-04-08T04:54:22.210Z,5.10
2023-04-08T04:56:49.628Z,5.10
2023-04-08T04:59:16.972Z,5.10
2023-04-08T05:01:44.327Z,5.10
2023-04-08T05:04:11.807Z,5.10
2023-04-08T05:06:39.293Z,5.10
2023-04-08T05:09:06.654Z,5.10
2023-04-08T05:11:34.204Z,5.20
2023-04-08T05:14:01.633Z,5.20
2023-04-08T05:16:29.167Z,5.10
2023-04-08T05:18:56.628Z,5.20
2023-04-08T05:21:24.218Z,5.20
2023-04-08T05:23:53.146Z,5.20
2023-04-08T05:26:21.899Z,5.20
2023-04-08T05:28:50.043Z,5.30
2023-04-08T05:31:18.776Z,5.30
2023-04-08T05:33:46.494Z,5.30
2023-04-08T05:36:14.364Z,5.40
2023-04-08T05:38:44.327Z,5.40
2023-04-08T05:41:11.760Z,5.40
2023-04-08T05:43:39.173Z,5.50
2023-04-08T05:46:08.268Z,5.50
2023-04-08T05:48:35.934Z,5.50
2023-04-08T05:51:03.681Z,5.50
2023-04-08T05:53:31.513Z,5.60
2023-04-08T05:55:58.959Z,5.60
2023-04-08T05:58:26.423Z,5.60
2023-04-08T06:00:55.638Z,5.60
2023-04-08T06:03:23.378Z,5.60
2023-04-08T06:05:50.901Z,5.60
2023-04-08T06:08:18.292Z,5.70
2023-04-08T06:10:52.374Z,5.70
2023-04-08T06:13:22.112Z,5.70
2023-04-08T06:15:49.981Z,5.70
2023-04-08T06:18:17.743Z,5.80
2023-04-08T06:20:46.097Z,5.90
2023-04-08T06:23:13.905Z,6.00
2023-04-08T06:25:42.056Z,6.00
2023-04-08T06:28:09.638Z,6.00
2023-04-08T06:30:37.118Z,6.10
2023-04-08T06:33:04.716Z,6.20
2023-04-08T06:35:32.734Z,6.30
2023-04-08T06:38:00.323Z,6.40
2023-04-08T06:40:27.795Z,6.50
2023-04-08T06:42:55.764Z,6.50
2023-04-08T06:45:35.563Z,6.60
2023-04-08T06:48:03.355Z,6.60
2023-04-08T06:50:30.804Z,6.70
2023-04-08T06:52:58.358Z,6.60
2023-04-08T06:55:25.924Z,6.70
2023-04-08T06:57:53.645Z,6.60
2023-04-08T07:00:21.263Z,6.70
2023-04-08T07:02:48.881Z,6.70
2023-04-08T07:05:16.682Z,6.70
2023-04-08T07:07:44.210Z,6.70
2023-04-08T07:10:12.686Z,6.80
2023-04-08T07:12:40.611Z,6.80
2023-04-08T07:15:08.992Z,6.80
2023-04-08T07:17:37.067Z,6.80
2023-04-08T07:20:05.728Z,6.80
2023-04-08T07:22:33.254Z,6.80
2023-04-08T07:25:00.648Z,6.90
2023-04-08T07:27:28.091Z,6.90
2023-04-08T07:29:56.056Z,6.90
2023-04-08T07:32:23.809Z,6.80
2023-04-08T07:34:51.308Z,6.90
2023-04-08T07:37:18.845Z,7.00
2023-04-08T07:39:46.420Z,7.20
2023-04-08T07:42:13.911Z,7.30
2023-04-08T07:44:41.368Z,7.50
2023-04-08T07:47:09.735Z,7.70
2023-04-08T07:49:37.749Z,7.80
2023-04-08T07:52:08.621Z,8.10
2023-04-08T07:54:36.107Z,8.40
2023-04-08T07:57:03.556Z,8.50
2023-04-08T07:59:32.420Z,8.50
2023-04-08T08:01:59.876Z,8.50
2023-04-08T08:04:27.511Z,8.40
2023-04-08T08:06:55.194Z,8.30
2023-04-08T08:09:22.676Z,8.20
2023-04-08T08:11:50.059Z,8.10
2023-04-08T08:14:17.593Z,7.90
2023-04-08T08:16:45.069Z,8.00
2023-04-08T08:19:14.016Z,7.90
2023-04-08T08:21:41.829Z,7.90
2023-04-08T08:24:09.377Z,8.10
2023-04-08T08:26:37.235Z,8.30
2023-04-08T08:29:06.518Z,8.50
2023-04-08T08:31:34.352Z,8.90
2023-04-08T08:34:01.827Z,9.30
2023-04-08T08:36:29.406Z,9.50
2023-04-08T08:38:56.803Z,9.60
2023-04-08T08:41:24.239Z,9.80
2023-04-08T08:43:52.901Z,10.00
2023-04-08T08:46:20.400Z,10.10
2023-04-08T08:48:47.999Z,10.00
2023-04-08T08:51:15.518Z,9.90
2023-04-08T08:53:45.779Z,9.70
2023-04-08T08:56:18.374Z,9.40
2023-04-08T08:58:47.817Z,9.50
2023-04-08T09:01:49.729Z,9.50
2023-04-08T09:04:20.363Z,9.60
2023-04-08T09:07:08.597Z,9.50
2023-04-08T09:09:49.894Z,9.40
2023-04-08T09:12:18.203Z,9.50
2023-04-08T09:14:46.548Z,9.50
2023-04-08T09:17:14.161Z,9.60
2023-04-08T09:20:19.717Z,9.40
2023-04-08T09:23:01.899Z,9.40
2023-04-08T09:25:32.166Z,9.40
2023-04-08T09:28:00.469Z,9.30
2023-04-08T09:30:28.667Z,9.40
2023-04-08T09:32:59.235Z,9.60
2023-04-08T09:35:26.960Z,9.60
2023-04-08T09:37:54.518Z,9.70
2023-04-08T09:40:24.876Z,9.60
2023-04-08T09:42:54.404Z,9.70
2023-04-08T09:45:22.239Z,9.70
2023-04-08T09:48:01.624Z,9.80
2023-04-08T09:50:32.895Z,9.80
2023-04-08T09:53:26.395Z,9.90
2023-04-08T09:55:57.172Z,9.60
2023-04-08T09:58:29.611Z,9.60
2023-04-08T10:00:57.827Z,9.80
2023-04-08T10:03:37.629Z,9.70
2023-04-08T10:06:08.332Z,9.80
2023-04-08T10:08:36.020Z,9.70
2023-04-08T10:11:03.670Z,9.60
2023-04-08T10:13:32.717Z,9.60
2023-04-08T10:16:24.740Z,9.50
2023-04-08T10:18:58.279Z,9.50
2023-04-08T10:21:35.551Z,9.50
2023-04-08T10:24:09.152Z,9.60
2023-04-08T10:26:41.591Z,9.50
2023-04-08T10:29:38.392Z,9.60
2023-04-08T10:32:06.052Z,9.90
2023-04-08T10:34:33.731Z,10.30
2023-04-08T10:37:02.333Z,10.50
2023-04-08T10:39:30.867Z,10.70
2023-04-08T10:41:58.324Z,10.80
2023-04-08T10:44:28.751Z,10.70
2023-04-08T10:46:56.538Z,10.70
2023-04-08T10:49:33.866Z,10.40
2023-04-08T10:52:01.657Z,10.30
2023-04-08T10:54:29.187Z,9.90
2023-04-08T10:56:56.801Z,9.50
2023-04-08T10:59:32.254Z,9.30
2023-04-08T11:02:01.524Z,9.30
2023-04-08T11:04:29.397Z,9.20
2023-04-08T11:06:58.347Z,9.20
2023-04-08T11:09:25.743Z,9.20
2023-04-08T11:11:53.984Z,9.20
2023-04-08T11:14:22.588Z,9.20
2023-04-08T11:16:50.127Z,9.30
2023-04-08T11:19:18.255Z,9.30
2023-04-08T11:21:46.727Z,9.30
2023-04-08T11:24:14.615Z,9.40
2023-04-08T11:26:42.823Z,9.60
2023-04-08T11:29:14.217Z,9.60
2023-04-08T11:31:44.115Z,9.50
2023-04-08T11:34:12.254Z,9.50
2023-04-08T11:36:42.680Z,9.70
2023-04-08T11:39:12.230Z,9.90
2023-04-08T11:41:43.009Z,10.00
2023-04-08T11:44:10.711Z,10.10
2023-04-08T11:46:38.203Z,10.00
2023-04-08T11:49:08.350Z,9.80
2023-04-08T11:51:54.320Z,9.70
2023-04-08T11:54:32.432Z,9.50
2023-04-08T11:57:00.225Z,9.20
2023-04-08T11:59:29.630Z,9.10
2023-04-08T12:01:57.912Z,8.90
2023-04-08T12:04:25.920Z,8.70
2023-04-08T12:06:53.503Z,8.70
2023-04-08T12:09:20.987Z,8.70
2023-04-08T12:11:48.487Z,8.60
2023-04-08T12:14:16.096Z,8.50
2023-04-08T12:16:43.529Z,8.50
2023-04-08T12:19:11.052Z,8.50
2023-04-08T12:21:38.665Z,8.50
2023-04-08T12:24:06.578Z,8.50
2023-04-08T12:26:34.041Z,8.50
2023-04-08T12:29:01.844Z,8.50
2023-04-08T12:31:29.395Z,8.30
2023-04-08T12:33:56.962Z,8.20
2023-04-08T12:36:24.500Z,8.30
2023-04-08T12:38:52.325Z,8.60
2023-04-08T12:41:20.021Z,8.80
2023-04-08T12:43:47.472Z,9.00
2023-04-08T12:46:14.907Z,9.10
2023-04-08T12:48:45.110Z,9.00
2023-04-08T12:51:12.835Z,8.80
2023-04-08T12:53:40.292Z,8.50
2023-04-08T12:56:07.716Z,8.50
2023-04-08T12:58:35.232Z,8.60
2023-04-08T13:01:02.824Z,9.00
2023-04-08T13:03:32.091Z,9.20
2023-04-08T13:05:59.638Z,9.10
2023-04-08T13:08:27.106Z,8.60
2023-04-08T13:10:55.254Z,8.20
2023-04-08T13:13:22.894Z,8.10
2023-04-08T13:15:51.020Z,7.90
2023-04-08T13:18:18.430Z,7.70
2023-04-08T13:20:46.082Z,7.60
2023-04-08T13:23:15.379Z,7.50
2023-04-08T13:25:48.361Z,7.60
2023-04-08T13:28:16.062Z,7.50
2023-04-08T13:30:43.661Z,7.50
2023-04-08T13:33:11.282Z,7.50
2023-04-08T13:35:38.948Z,7.70
2023-04-08T13:38:06.437Z,7.70
2023-04-08T13:40:33.857Z,7.90
2023-04-08T13:43:01.780Z,8.10
2023-04-08T13:45:29.310Z,8.20
2023-04-08T13:47:56.944Z,8.40
2023-04-08T13:50:24.638Z,8.50
2023-04-08T13:52:51.990Z,8.70
2023-04-08T13:55:19.404Z,9.00
2023-04-08T13:57:46.893Z,9.40
2023-04-08T14:00:14.585Z,9.40
2023-04-08T14:02:42.590Z,9.30
2023-04-08T14:05:10.208Z,9.20
2023-04-08T14:07:37.626Z,9.40
2023-04-08T14:10:05.869Z,9.40
2023-04-08T14:12:33.532Z,9.30
2023-04-08T14:15:02.802Z,9.20
2023-04-08T14:17:30.368Z,8.80
2023-04-08T14:19:59.662Z,8.60
2023-04-08T14:22:27.140Z,8.60
2023-04-08T14:24:54.582Z,8.60
2023-04-08T14:27:21.892Z,8.40
2023-04-08T14:29:49.274Z,8.30
2023-04-08T14:32:16.835Z,8.30
2023-04-08T14:34:44.845Z,8.30
2023-04-08T14:37:12.332Z,8.30
2023-04-08T14:39:39.826Z,8.30
2023-04-08T14:42:07.265Z,8.40
2023-04-08T14:44:34.673Z,8.50
2023-04-08T14:47:02.209Z,8.40
2023-04-08T14:49:29.657Z,8.50
2023-04-08T14:51:57.138Z,8.40
2023-04-08T14:54:24.590Z,8.50
2023-04-08T14:56:52.083Z,8.40
2023-04-08T14:59:19.525Z,8.40
2023-04-08T15:01:47.059Z,8.50
2023-04-08T15:04:14.899Z,8.50
2023-04-08T15:06:42.812Z,8.40
2023-04-08T15:09:10.378Z,8.40
2023-04-08T15:11:37.831Z,8.20
2023-04-08T15:14:05.576Z,8.10
2023-04-08T15:16:33.187Z,8.20
2023-04-08T15:19:00.833Z,8.30
2023-04-08T15:21:32.416Z,8.20
2023-04-08T15:23:59.980Z,8.00
2023-04-08T15:26:27.883Z,7.80
2023-04-08T15:28:57.560Z,7.80
2023-04-08T15:31:25.325Z,7.70
2023-04-08T15:33:53.426Z,7.60
2023-04-08T15:36:21.370Z,7.60
2023-04-08T15:38:49.009Z,7.70
2023-04-08T15:41:21.413Z,7.60
2023-04-08T15:43:49.095Z,7.50
2023-04-08T15:46:23.127Z,7.50
2023-04-08T15:48:51.295Z,7.40
2023-04-08T15:51:20.335Z,7.50
2023-04-08T15:53:48.006Z,7.50
2023-04-08T15:56:16.676Z,7.70
2023-04-08T15:58:45.792Z,7.60
2023-04-08T16:01:13.419Z,7.60
2023-04-08T16:03:43.604Z,7.60
2023-04-08T16:06:11.262Z,7.60
2023-04-08T16:08:39.379Z,7.50
2023-04-08T16:11:08.113Z,7.50
2023-04-08T16:13:35.786Z,7.50
2023-04-08T16:16:03.742Z,7.40
2023-04-08T16:18:31.500Z,7.40
2023-04-08T16:20:58.908Z,7.30
2023-04-08T16:23:26.560Z,7.30
2023-04-08T16:25:54.000Z,7.20
2023-04-08T16:28:22.090Z,7.20
2023-04-08T16:30:49.656Z,7.20
2023-04-08T16:33:17.211Z,7.20
2023-04-08T16:35:44.876Z,7.10
2023-04-08T16:38:12.230Z,7.10
2023-04-08T16:40:39.748Z,7.10
2023-04-08T16:43:07.210Z,7.10
2023-04-08T16:45:34.704Z,7.10
2023-04-08T16:48:02.674Z,7.00
2023-04-08T16:50:30.142Z,7.00
2023-04-08T16:52:59.994Z,7.00
2023-04-08T16:55:27.554Z,7.00
2023-04-08T16:57:55.067Z,7.00
2023-04-08T17:00:22.607Z,6.90
2023-04-08T17:02:50.126Z,6.90
2023-04-08T17:05:18.056Z,6.90
2023-04-08T17:07:45.495Z,6.90
2023-04-08T17:10:13.166Z,6.80
2023-04-08T17:12:41.668Z,6.90
2023-04-08T17:15:10.175Z,6.80
2023-04-08T17:17:37.764Z,6.80
2023-04-08T17:20:05.989Z,6.70
2023-04-08T17:22:33.587Z,6.70
2023-04-08T17:25:01.294Z,6.60
2023-04-08T17:27:28.917Z,6.60
2023-04-08T17:29:57.877Z,6.60
2023-04-08T17:32:25.386Z,6.50
2023-04-08T17:34:53.327Z,6.50
2023-04-08T17:37:21.490Z,6.50
2023-04-08T17:39:49.248Z,6.50
2023-04-08T17:42:17.017Z,6.50
2023-04-08T17:44:44.957Z,6.50
2023-04-08T17:47:12.360Z,6.40
2023-04-08T17:49:39.766Z,6.40
2023-04-08T17:52:07.444Z,6.30
2023-04-08T17:54:35.072Z,6.20
2023-04-08T17:57:03.237Z,6.10
2023-04-08T17:59:34.034Z,6.00
2023-04-08T18:02:01.432Z,6.00
2023-04-08T18:04:30.035Z,6.10
2023-04-08T18:06:57.584Z,6.10
2023-04-08T18:09:25.024Z,6.10
2023-04-08T18:11:52.489Z,6.00
2023-04-08T18:14:20.137Z,6.00
2023-04-08T18:16:47.658Z,6.00
2023-04-08T18:19:15.359Z,6.00
2023-04-08T18:21:43.618Z,6.00
2023-04-08T18:24:11.130Z,6.00
2023-04-08T18:26:38.553Z,6.00
2023-04-08T18:29:06.815Z,6.00
2023-04-08T18:31:34.239Z,5.90
2023-04-08T18:34:02.321Z,5.80
2023-04-08T18:36:29.816Z,5.70
2023-04-08T18:38:57.659Z,5.70
2023-04-08T18:41:26.412Z,5.70
2023-04-08T18:43:53.958Z,5.60
2023-04-08T18:46:21.623Z,5.40
2023-04-08T18:48:49.366Z,5.30
2023-04-08T18:51:16.957Z,5.30
2023-04-08T18:53:44.436Z,5.20
2023-04-08T18:56:19.232Z,5.20
2023-04-08T18:58:47.170Z,5.10
2023-04-08T19:01:14.948Z,5.10
2023-04-08T19:03:46.173Z,5.00
2023-04-08T19:06:14.084Z,5.00
2023-04-08T19:08:41.585Z,4.90
2023-04-08T19:11:09.066Z,4.90
2023-04-08T19:13:38.916Z,4.90
2023-04-08T19:16:07.176Z,4.80
2023-04-08T19:18:34.668Z,4.80
2023-04-08T19:21:02.384Z,4.80
2023-04-08T19:23:29.728Z,4.80
2023-04-08T19:25:57.330Z,4.80
2023-04-08T19:28:24.850Z,4.90
2023-04-08T19:30:52.494Z,4.80
2023-04-08T19:33:21.067Z,4.80
2023-04-08T19:35:49.427Z,4.70
2023-04-08T19:38:16.924Z,4.50
2023-04-08T19:40:44.504Z,4.30
2023-04-08T19:43:11.955Z,4.20
2023-04-08T19:45:39.543Z,4.20
2023-04-08T19:48:07.785Z,4.00
2023-04-08T19:50:39.220Z,3.90
2023-04-08T19:53:09.176Z,3.80
2023-04-08T19:55:37.807Z,3.60
2023-04-08T19:58:05.704Z,3.50
2023-04-08T20:00:33.229Z,3.40
2023-04-08T20:03:01.220Z,3.30
2023-04-08T20:05:28.872Z,3.20
2023-04-08T20:07:56.351Z,3.00
2023-04-08T20:10:23.857Z,3.00
2023-04-08T20:12:53.351Z,2.90
2023-04-08T20:15:25.387Z,2.80
2023-04-08T20:17:55.559Z,2.60
2023-04-08T20:20:24.172Z,2.50
2023-04-08T20:22:51.760Z,2.40
2023-04-08T20:25:19.363Z,2.40
2023-04-08T20:27:46.809Z,2.30
2023-04-08T20:30:14.317Z,2.20
2023-04-08T20:32:41.765Z,2.20
2023-04-08T20:35:09.499Z,2.20
2023-04-08T20:37:37.008Z,2.10
2023-04-08T20:40:05.187Z,2.10
2023-04-08T20:42:32.765Z,2.10
2023-04-08T20:45:00.741Z,2.00
2023-04-08T20:47:28.912Z,2.00
2023-04-08T20:49:56.473Z,1.90
2023-04-08T20:52:23.988Z,1.90
2023-04-08T20:54:51.522Z,1.90
2023-04-08T20:57:19.040Z,1.80
2023-04-08T20:59:46.422Z,1.70
2023-04-08T21:02:14.291Z,1.70
2023-04-08T21:04:41.901Z,1.60
2023-04-08T21:07:09.454Z,1.50
2023-04-08T21:09:36.955Z,1.40
2023-04-08T21:12:04.699Z,1.30
2023-04-08T21:14:32.306Z,1.20
2023-04-08T21:17:00.431Z,1.20
2023-04-08T21:19:28.178Z,1.20
2023-04-08T21:21:55.737Z,1.10
2023-04-08T21:24:23.134Z,1.10
2023-04-08T21:26:50.728Z,1.00
2023-04-08T21:29:18.403Z,1.00
2023-04-08T21:31:46.136Z,0.90
2023-04-08T21:34:13.716Z,1.00
2023-04-08T21:36:43.697Z,0.90
2023-04-08T21:39:11.344Z,0.90
2023-04-08T21:41:38.841Z,0.90
2023-04-08T21:44:06.315Z,1.00
2023-04-08T21:46:33.796Z,1.10
2023-04-08T21:49:01.208Z,1.20
2023-04-08T21:51:28.788Z,1.20
2023-04-08T21:53:59.133Z,1.00
2023-04-08T21:56:27.742Z,0.90
2023-04-08T21:58:55.432Z,0.80
2023-04-08T22:01:22.992Z,0.70
2023-04-08T22:03:52.375Z,0.70
2023-04-08T22:06:31.106Z,0.70
2023-04-08T22:08:59.452Z,0.60
2023-04-08T22:11:29.507Z,0.60
2023-04-08T22:13:57.016Z,0.70
2023-04-08T22:16:24.533Z,0.60
2023-04-08T22:18:52.074Z,0.60
2023-04-08T22:21:19.686Z,0.60
2023-04-08T22:23:47.173Z,0.50
2023-04-08T22:26:16.179Z,0.50
2023-04-08T22:28:43.787Z,0.50
2023-04-08T22:31:12.248Z,0.50
2023-04-08T22:33:39.922Z,0.50
2023-04-08T22:36:07.668Z,0.40
2023-04-08T22:38:35.646Z,0.30
2023-04-08T22:41:03.274Z,0.20
2023-04-08T22:43:30.825Z,0.20
2023-04-08T22:45:58.363Z,0.10
2023-04-08T22:48:25.972Z,0.10
2023-04-08T22:50:53.519Z,0.10
2023-04-08T22:53:21.237Z,0.10
2023-04-08T22:55:48.659Z,0.00
2023-04-08T22:58:16.487Z,0.20
2023-04-08T23:00:43.958Z,0.30
2023-04-08T23:03:11.744Z,0.30
2023-04-08T23:05:39.334Z,0.40
2023-04-08T23:08:06.905Z,0.30
2023-04-08T23:10:34.305Z,0.30
2023-04-08T23:13:02.048Z,0.20
2023-04-08T23:15:29.791Z,0.10
2023-04-08T23:17:57.662Z,0.00
2023-04-08T23:20:25.321Z,-0.10
2023-04-08T23:22:52.884Z,-0.10
2023-04-08T23:25:20.414Z,-0.10
2023-04-08T23:27:47.889Z,-0.30
2023-04-08T23:30:15.605Z,-0.30
2023-04-08T23:32:43.101Z,-0.40
2023-04-08T23:35:10.750Z,-0.40
2023-04-08T23:37:38.293Z,-0.40
2023-04-08T23:40:07.045Z,-0.40
2023-04-08T23:42:34.585Z,-0.40
2023-04-08T23:45:02.107Z,-0.40
2023-04-08T23:47:31.258Z,-0.50
2023-04-08T23:49:58.838Z,-0.50
2023-04-08T23:52:26.360Z,-0.50
2023-04-08T23:54:53.898Z,-0.60
2023-04-08T23:57:21.510Z,-0.60
2023-04-08T23:59:49.228Z,-0.60
